sensor_id;sensor_type;location;lat;lon;timestamp;pressure;altitude;pressure_sealevel;temperature;humidity
64844;BME280;51310;52.198;5.422;2023-02-03T00:00:46;102155.25;;;7.57;100.00
64844;BME280;51310;52.198;5.422;2023-02-03T00:03:12;102166.81;;;7.60;100.00
64844;BME280;51310;52.198;5.422;2023-02-03T00:05:38;102169.44;;;7.68;100.00
64844;BME280;51310;52.198;5.422;2023-02-03T00:08:07;102174.84;;;7.76;100.00
64844;BME280;51310;52.198;5.422;2023-02-03T00:10:35;102178.25;;;7.70;100.00
64844;BME280;51310;52.198;5.422;2023-02-03T00:13:02;102175.69;;;7.70;100.00
64844;BME280;51310;52.198;5.422;2023-02-03T00:15:28;102159.84;;;7.59;100.00
64844;BME280;51310;52.198;5.422;2023-02-03T00:17:53;102158.72;;;7.57;100.00
64844;BME280;51310;52.198;5.422;2023-02-03T00:20:19;102166.56;;;7.72;100.00
64844;BME280;51310;52.198;5.422;2023-02-03T00:22:45;102175.44;;;7.81;100.00
64844;BME280;51310;52.198;5.422;2023-02-03T00:25:11;102185.31;;;7.78;100.00
64844;BME280;51310;52.198;5.422;2023-02-03T00:27:36;102184.78;;;7.80;100.00
64844;BME280;51310;52.198;5.422;2023-02-03T00:30:03;102185.47;;;7.79;100.00
64844;BME280;51310;52.198;5.422;2023-02-03T00:32:29;102190.44;;;7.78;100.00
64844;BME280;51310;52.198;5.422;2023-02-03T00:34:54;102184.34;;;7.77;100.00
64844;BME280;51310;52.198;5.422;2023-02-03T00:37:20;102188.38;;;7.75;100.00
64844;BME280;51310;52.198;5.422;2023-02-03T00:39:48;102175.44;;;7.81;100.00
64844;BME280;51310;52.198;5.422;2023-02-03T00:42:14;102172.81;;;7.74;100.00
64844;BME280;51310;52.198;5.422;2023-02-03T00:44:41;102177.66;;;7.85;100.00
64844;BME280;51310;52.198;5.422;2023-02-03T00:47:06;102189.56;;;7.85;100.00
64844;BME280;51310;52.198;5.422;2023-02-03T00:49:32;102185.63;;;7.74;100.00
64844;BME280;51310;52.198;5.422;2023-02-03T00:51:58;102187.34;;;7.80;100.00
64844;BME280;51310;52.198;5.422;2023-02-03T00:54:24;102179.13;;;7.83;100.00
64844;BME280;51310;52.198;5.422;2023-02-03T00:56:49;102168.59;;;7.74;100.00
64844;BME280;51310;52.198;5.422;2023-02-03T00:59:15;102176.06;;;7.73;100.00
64844;BME280;51310;52.198;5.422;2023-02-03T01:01:41;102157.09;;;7.78;100.00
64844;BME280;51310;52.198;5.422;2023-02-03T01:04:06;102156.84;;;7.69;100.00
64844;BME280;51310;52.198;5.422;2023-02-03T01:06:32;102147.44;;;7.63;100.00
64844;BME280;51310;52.198;5.422;2023-02-03T01:09:00;102157.53;;;7.68;100.00
64844;BME280;51310;52.198;5.422;2023-02-03T01:11:26;102157.00;;;7.71;100.00
64844;BME280;51310;52.198;5.422;2023-02-03T01:13:55;102163.94;;;7.65;100.00
64844;BME280;51310;52.198;5.422;2023-02-03T01:16:23;102178.63;;;7.73;100.00
64844;BME280;51310;52.198;5.422;2023-02-03T01:18:49;102177.19;;;7.75;100.00
64844;BME280;51310;52.198;5.422;2023-02-03T01:21:23;102174.03;;;7.70;100.00
64844;BME280;51310;52.198;5.422;2023-02-03T01:23:50;102168.53;;;7.67;100.00
64844;BME280;51310;52.198;5.422;2023-02-03T01:26:19;102148.22;;;7.69;100.00
64844;BME280;51310;52.198;5.422;2023-02-03T01:28:57;102144.16;;;7.64;100.00
64844;BME280;51310;52.198;5.422;2023-02-03T01:31:33;102127.28;;;7.58;100.00
64844;BME280;51310;52.198;5.422;2023-02-03T01:34:05;102128.06;;;7.65;100.00
64844;BME280;51310;52.198;5.422;2023-02-03T01:36:33;102122.41;;;7.67;100.00
64844;BME280;51310;52.198;5.422;2023-02-03T01:39:00;102135.22;;;7.67;100.00
64844;BME280;51310;52.198;5.422;2023-02-03T01:41:33;102125.34;;;7.70;100.00
64844;BME280;51310;52.198;5.422;2023-02-03T01:44:01;102125.16;;;7.69;100.00
64844;BME280;51310;52.198;5.422;2023-02-03T01:46:59;102134.38;;;7.74;100.00
64844;BME280;51310;52.198;5.422;2023-02-03T01:49:31;102146.66;;;7.76;100.00
64844;BME280;51310;52.198;5.422;2023-02-03T01:51:58;102138.75;;;7.75;100.00
64844;BME280;51310;52.198;5.422;2023-02-03T01:54:29;102141.91;;;7.79;100.00
64844;BME280;51310;52.198;5.422;2023-02-03T01:57:04;102123.78;;;7.78;100.00
64844;BME280;51310;52.198;5.422;2023-02-03T01:59:33;102117.94;;;7.79;100.00
64844;BME280;51310;52.198;5.422;2023-02-03T02:02:00;102112.50;;;7.63;100.00
64844;BME280;51310;52.198;5.422;2023-02-03T02:04:49;102092.25;;;7.72;100.00
64844;BME280;51310;52.198;5.422;2023-02-03T02:07:18;102096.47;;;7.71;100.00
64844;BME280;51310;52.198;5.422;2023-02-03T02:09:44;102097.22;;;7.77;100.00
64844;BME280;51310;52.198;5.422;2023-02-03T02:12:11;102118.66;;;7.78;100.00
64844;BME280;51310;52.198;5.422;2023-02-03T02:14:38;102113.22;;;7.82;100.00
64844;BME280;51310;52.198;5.422;2023-02-03T02:17:27;102116.47;;;7.81;100.00
64844;BME280;51310;52.198;5.422;2023-02-03T02:26:51;102110.97;;;7.78;100.00
64844;BME280;51310;52.198;5.422;2023-02-03T02:32:41;102105.91;;;7.85;100.00
64844;BME280;51310;52.198;5.422;2023-02-03T02:35:23;102112.47;;;7.83;100.00
64844;BME280;51310;52.198;5.422;2023-02-03T02:41:04;102111.88;;;7.78;100.00
64844;BME280;51310;52.198;5.422;2023-02-03T02:43:43;102112.13;;;7.87;100.00
64844;BME280;51310;52.198;5.422;2023-02-03T02:46:23;102115.78;;;7.82;100.00
64844;BME280;51310;52.198;5.422;2023-02-03T02:49:20;102103.06;;;7.96;100.00
64844;BME280;51310;52.198;5.422;2023-02-03T02:51:49;102096.09;;;7.95;100.00
64844;BME280;51310;52.198;5.422;2023-02-03T02:54:20;102084.78;;;8.00;100.00
64844;BME280;51310;52.198;5.422;2023-02-03T02:56:52;102103.13;;;8.04;100.00
64844;BME280;51310;52.198;5.422;2023-02-03T02:59:20;102095.22;;;8.02;100.00
64844;BME280;51310;52.198;5.422;2023-02-03T03:01:45;102078.41;;;8.04;100.00
64844;BME280;51310;52.198;5.422;2023-02-03T03:04:15;102075.88;;;8.11;100.00
64844;BME280;51310;52.198;5.422;2023-02-03T03:06:48;102067.06;;;8.09;100.00
64844;BME280;51310;52.198;5.422;2023-02-03T03:09:23;102081.56;;;8.16;100.00
64844;BME280;51310;52.198;5.422;2023-02-03T03:11:57;102091.28;;;8.18;100.00
64844;BME280;51310;52.198;5.422;2023-02-03T03:14:30;102083.81;;;8.20;100.00
64844;BME280;51310;52.198;5.422;2023-02-03T03:17:03;102078.47;;;8.18;100.00
64844;BME280;51310;52.198;5.422;2023-02-03T03:19:54;102075.34;;;8.14;100.00
64844;BME280;51310;52.198;5.422;2023-02-03T03:22:27;102063.09;;;8.18;100.00
64844;BME280;51310;52.198;5.422;2023-02-03T03:25:16;102072.09;;;8.22;100.00
64844;BME280;51310;52.198;5.422;2023-02-03T03:27:53;102070.06;;;8.19;100.00
64844;BME280;51310;52.198;5.422;2023-02-03T03:30:25;102083.25;;;8.22;100.00
64844;BME280;51310;52.198;5.422;2023-02-03T03:32:55;102085.31;;;8.25;100.00
64844;BME280;51310;52.198;5.422;2023-02-03T03:35:22;102084.72;;;8.20;100.00
64844;BME280;51310;52.198;5.422;2023-02-03T03:38:06;102097.19;;;8.25;100.00
64844;BME280;51310;52.198;5.422;2023-02-03T03:40:41;102090.25;;;8.24;100.00
64844;BME280;51310;52.198;5.422;2023-02-03T03:43:20;102080.00;;;8.24;100.00
64844;BME280;51310;52.198;5.422;2023-02-03T03:46:05;102080.00;;;8.24;100.00
64844;BME280;51310;52.198;5.422;2023-02-03T03:48:51;102086.78;;;8.23;100.00
64844;BME280;51310;52.198;5.422;2023-02-03T03:51:39;102099.06;;;8.26;100.00
64844;BME280;51310;52.198;5.422;2023-02-03T03:54:10;102104.53;;;8.21;100.00
64844;BME280;51310;52.198;5.422;2023-02-03T03:56:52;102119.72;;;8.20;100.00
64844;BME280;51310;52.198;5.422;2023-02-03T03:59:24;102110.56;;;8.22;100.00
64844;BME280;51310;52.198;5.422;2023-02-03T04:01:52;102107.47;;;8.25;100.00
64844;BME280;51310;52.198;5.422;2023-02-03T04:04:19;102114.38;;;8.18;100.00
64844;BME280;51310;52.198;5.422;2023-02-03T04:06:45;102108.91;;;8.22;100.00
64844;BME280;51310;52.198;5.422;2023-02-03T04:09:11;102136.78;;;8.27;100.00
64844;BME280;51310;52.198;5.422;2023-02-03T04:11:37;102122.81;;;8.17;100.00
64844;BME280;51310;52.198;5.422;2023-02-03T04:14:21;102119.72;;;8.20;100.00
64844;BME280;51310;52.198;5.422;2023-02-03T04:16:46;102118.66;;;8.25;100.00
64844;BME280;51310;52.198;5.422;2023-02-03T04:19:12;102117.16;;;8.20;100.00
64844;BME280;51310;52.198;5.422;2023-02-03T04:21:38;102124.50;;;8.24;100.00
64844;BME280;51310;52.198;5.422;2023-02-03T04:24:03;102100.72;;;8.25;100.00
64844;BME280;51310;52.198;5.422;2023-02-03T04:26:29;102101.63;;;8.26;100.00
64844;BME280;51310;52.198;5.422;2023-02-03T04:28:55;102110.22;;;8.26;100.00
64844;BME280;51310;52.198;5.422;2023-02-03T04:31:21;102104.03;;;8.31;100.00
64844;BME280;51310;52.198;5.422;2023-02-03T04:33:46;102104.72;;;8.23;100.00
64844;BME280;51310;52.198;5.422;2023-02-03T04:36:12;102095.75;;;8.27;100.00
64844;BME280;51310;52.198;5.422;2023-02-03T04:38:37;102093.53;;;8.22;100.00
64844;BME280;51310;52.198;5.422;2023-02-03T04:41:03;102087.88;;;8.25;100.00
64844;BME280;51310;52.198;5.422;2023-02-03T04:43:29;102091.72;;;8.29;100.00
64844;BME280;51310;52.198;5.422;2023-02-03T04:45:55;102106.00;;;8.27;100.00
64844;BME280;51310;52.198;5.422;2023-02-03T04:48:20;102097.78;;;8.29;100.00
64844;BME280;51310;52.198;5.422;2023-02-03T04:50:46;102090.63;;;8.27;100.00
64844;BME280;51310;52.198;5.422;2023-02-03T04:53:12;102095.94;;;8.28;100.00
64844;BME280;51310;52.198;5.422;2023-02-03T04:55:37;102097.03;;;8.23;100.00
64844;BME280;51310;52.198;5.422;2023-02-03T04:58:03;102102.16;;;8.23;100.00
64844;BME280;51310;52.198;5.422;2023-02-03T05:00:29;102103.97;;;8.24;100.00
64844;BME280;51310;52.198;5.422;2023-02-03T05:02:55;102088.78;;;8.26;100.00
64844;BME280;51310;52.198;5.422;2023-02-03T05:05:20;102081.97;;;8.19;100.00
64844;BME280;51310;52.198;5.422;2023-02-03T05:07:46;102091.28;;;8.18;100.00
64844;BME280;51310;52.198;5.422;2023-02-03T05:10:12;102084.53;;;8.19;100.00
64844;BME280;51310;52.198;5.422;2023-02-03T05:12:38;102099.00;;;8.18;100.00
64844;BME280;51310;52.198;5.422;2023-02-03T05:15:04;102096.09;;;8.22;100.00
64844;BME280;51310;52.198;5.422;2023-02-03T05:17:30;102101.06;;;8.21;100.00
64844;BME280;51310;52.198;5.422;2023-02-03T05:19:55;102106.88;;;8.20;100.00
64844;BME280;51310;52.198;5.422;2023-02-03T05:22:21;102102.88;;;8.22;100.00
64844;BME280;51310;52.198;5.422;2023-02-03T05:24:47;102093.34;;;8.21;100.00
64844;BME280;51310;52.198;5.422;2023-02-03T05:27:12;102092.25;;;8.19;100.00
64844;BME280;51310;52.198;5.422;2023-02-03T05:29:38;102093.69;;;8.17;100.00
64844;BME280;51310;52.198;5.422;2023-02-03T05:32:04;102113.09;;;8.15;100.00
64844;BME280;51310;52.198;5.422;2023-02-03T05:34:30;102093.16;;;8.19;100.00
64844;BME280;51310;52.198;5.422;2023-02-03T05:36:55;102098.06;;;8.18;100.00
64844;BME280;51310;52.198;5.422;2023-02-03T05:39:21;102093.84;;;8.18;100.00
64844;BME280;51310;52.198;5.422;2023-02-03T05:41:47;102108.00;;;8.22;100.00
64844;BME280;51310;52.198;5.422;2023-02-03T05:44:21;102102.53;;;8.26;100.00
64844;BME280;51310;52.198;5.422;2023-02-03T05:46:49;102113.91;;;8.28;100.00
64844;BME280;51310;52.198;5.422;2023-02-03T05:49:15;102110.78;;;8.24;100.00
64844;BME280;51310;52.198;5.422;2023-02-03T05:51:41;102111.88;;;8.26;100.00
64844;BME280;51310;52.198;5.422;2023-02-03T05:54:07;102095.19;;;8.22;100.00
64844;BME280;51310;52.198;5.422;2023-02-03T05:56:34;102107.28;;;8.23;100.00
64844;BME280;51310;52.198;5.422;2023-02-03T05:58:59;102108.16;;;8.16;100.00
64844;BME280;51310;52.198;5.422;2023-02-03T06:01:25;102094.25;;;8.21;100.00
64844;BME280;51310;52.198;5.422;2023-02-03T06:03:51;102106.19;;;8.21;100.00
64844;BME280;51310;52.198;5.422;2023-02-03T06:06:17;102108.88;;;8.15;100.00
64844;BME280;51310;52.198;5.422;2023-02-03T06:08:43;102109.06;;;8.17;100.00
64844;BME280;51310;52.198;5.422;2023-02-03T06:11:09;102103.06;;;8.24;100.00
64844;BME280;51310;52.198;5.422;2023-02-03T06:13:35;102106.69;;;8.18;100.00
64844;BME280;51310;52.198;5.422;2023-02-03T06:16:01;102098.06;;;8.18;100.00
64844;BME280;51310;52.198;5.422;2023-02-03T06:18:28;102098.03;;;8.11;100.00
64844;BME280;51310;52.198;5.422;2023-02-03T06:20:53;102131.41;;;8.18;100.00
64844;BME280;51310;52.198;5.422;2023-02-03T06:23:19;102116.22;;;8.19;100.00
64844;BME280;51310;52.198;5.422;2023-02-03T06:25:47;102118.47;;;8.24;100.00
64844;BME280;51310;52.198;5.422;2023-02-03T06:28:13;102123.19;;;8.20;100.00
64844;BME280;51310;52.198;5.422;2023-02-03T06:30:39;102125.25;;;8.23;100.00
64844;BME280;51310;52.198;5.422;2023-02-03T06:33:05;102120.63;;;8.20;100.00
64844;BME280;51310;52.198;5.422;2023-02-03T06:35:31;102117.69;;;8.17;100.00
64844;BME280;51310;52.198;5.422;2023-02-03T06:37:56;102115.69;;;8.22;100.00
64844;BME280;51310;52.198;5.422;2023-02-03T06:40:22;102117.69;;;8.17;100.00
64844;BME280;51310;52.198;5.422;2023-02-03T06:42:48;102126.13;;;8.16;100.00
64844;BME280;51310;52.198;5.422;2023-02-03T06:45:16;102116.03;;;8.18;100.00
64844;BME280;51310;52.198;5.422;2023-02-03T06:47:43;102129.00;;;8.12;100.00
64844;BME280;51310;52.198;5.422;2023-02-03T06:50:13;102125.66;;;8.06;100.00
64844;BME280;51310;52.198;5.422;2023-02-03T06:52:40;102132.09;;;8.10;100.00
64844;BME280;51310;52.198;5.422;2023-02-03T06:55:06;102136.84;;;8.07;100.00
64844;BME280;51310;52.198;5.422;2023-02-03T06:57:32;102152.97;;;8.06;100.00
64844;BME280;51310;52.198;5.422;2023-02-03T06:59:58;102141.59;;;8.04;100.00
64844;BME280;51310;52.198;5.422;2023-02-03T07:02:24;102144.53;;;8.07;100.00
64844;BME280;51310;52.198;5.422;2023-02-03T07:04:49;102140.84;;;8.05;100.00
64844;BME280;51310;52.198;5.422;2023-02-03T07:07:16;102158.47;;;8.09;100.00
64844;BME280;51310;52.198;5.422;2023-02-03T07:09:41;102159.31;;;8.02;100.00
64844;BME280;51310;52.198;5.422;2023-02-03T07:12:08;102150.41;;;8.06;100.00
64844;BME280;51310;52.198;5.422;2023-02-03T07:14:34;102158.25;;;8.07;100.00
64844;BME280;51310;52.198;5.422;2023-02-03T07:17:01;102153.13;;;8.07;100.00
64844;BME280;51310;52.198;5.422;2023-02-03T07:19:28;102153.34;;;8.09;100.00
64844;BME280;51310;52.198;5.422;2023-02-03T07:21:54;102161.94;;;8.09;100.00
64844;BME280;51310;52.198;5.422;2023-02-03T07:24:20;102164.66;;;8.04;100.00
64844;BME280;51310;52.198;5.422;2023-02-03T07:26:45;102162.16;;;8.11;100.00
64844;BME280;51310;52.198;5.422;2023-02-03T07:29:11;102162.16;;;8.11;100.00
64844;BME280;51310;52.198;5.422;2023-02-03T07:31:37;102163.91;;;8.05;100.00
64844;BME280;51310;52.198;5.422;2023-02-03T07:34:03;102161.31;;;7.97;100.00
64844;BME280;51310;52.198;5.422;2023-02-03T07:36:29;102161.09;;;7.96;100.00
64844;BME280;51310;52.198;5.422;2023-02-03T07:38:55;102157.22;;;7.92;100.00
64844;BME280;51310;52.198;5.422;2023-02-03T07:41:21;102159.28;;;7.95;100.00
64844;BME280;51310;52.198;5.422;2023-02-03T07:43:47;102154.72;;;7.99;100.00
64844;BME280;51310;52.198;5.422;2023-02-03T07:46:13;102161.31;;;7.97;100.00
64844;BME280;51310;52.198;5.422;2023-02-03T07:48:39;102163.66;;;7.96;100.00
64844;BME280;51310;52.198;5.422;2023-02-03T07:51:04;102173.25;;;8.04;100.00
64844;BME280;51310;52.198;5.422;2023-02-03T07:53:31;102166.28;;;8.03;100.00
64844;BME280;51310;52.198;5.422;2023-02-03T07:56:01;102180.38;;;7.99;100.00
64844;BME280;51310;52.198;5.422;2023-02-03T07:58:28;102184.44;;;8.05;100.00
64844;BME280;51310;52.198;5.422;2023-02-03T08:00:54;102174.91;;;8.04;100.00
64844;BME280;51310;52.198;5.422;2023-02-03T08:03:20;102180.22;;;8.05;100.00
64844;BME280;51310;52.198;5.422;2023-02-03T08:05:46;102169.78;;;8.04;100.00
64844;BME280;51310;52.198;5.422;2023-02-03T08:08:12;102183.19;;;8.08;100.00
64844;BME280;51310;52.198;5.422;2023-02-03T08:10:38;102195.47;;;8.11;100.00
64844;BME280;51310;52.198;5.422;2023-02-03T08:13:04;102199.28;;;8.07;100.00
64844;BME280;51310;52.198;5.422;2023-02-03T08:15:29;102194.16;;;8.07;100.00
64844;BME280;51310;52.198;5.422;2023-02-03T08:17:55;102200.94;;;8.07;100.00
64844;BME280;51310;52.198;5.422;2023-02-03T08:20:21;102217.44;;;8.09;100.00
64844;BME280;51310;52.198;5.422;2023-02-03T08:22:47;102212.19;;;8.14;100.00
64844;BME280;51310;52.198;5.422;2023-02-03T08:25:13;102223.75;;;8.18;100.00
64844;BME280;51310;52.198;5.422;2023-02-03T08:27:39;102231.09;;;8.22;100.00
64844;BME280;51310;52.198;5.422;2023-02-03T08:30:09;102222.50;;;8.21;100.00
64844;BME280;51310;52.198;5.422;2023-02-03T08:32:35;102220.13;;;8.23;100.00
64844;BME280;51310;52.198;5.422;2023-02-03T08:35:01;102226.38;;;8.25;100.00
64844;BME280;51310;52.198;5.422;2023-02-03T08:37:27;102220.91;;;8.29;100.00
64844;BME280;51310;52.198;5.422;2023-02-03T08:39:56;102220.19;;;8.30;100.00
64844;BME280;51310;52.198;5.422;2023-02-03T08:42:21;102218.75;;;8.32;100.00
64844;BME280;51310;52.198;5.422;2023-02-03T08:44:47;102242.75;;;8.33;100.00
64844;BME280;51310;52.198;5.422;2023-02-03T08:47:13;102222.22;;;8.33;100.00
64844;BME280;51310;52.198;5.422;2023-02-03T08:49:39;102229.91;;;8.33;100.00
64844;BME280;51310;52.198;5.422;2023-02-03T08:52:09;102226.97;;;8.30;100.00
64844;BME280;51310;52.198;5.422;2023-02-03T08:54:35;102235.03;;;8.33;100.00
64844;BME280;51310;52.198;5.422;2023-02-03T08:57:01;102227.34;;;8.33;100.00
64844;BME280;51310;52.198;5.422;2023-02-03T08:59:27;102234.50;;;8.35;100.00
64844;BME280;51310;52.198;5.422;2023-02-03T09:01:54;102240.59;;;8.36;100.00
64844;BME280;51310;52.198;5.422;2023-02-03T09:04:20;102228.38;;;8.40;100.00
64844;BME280;51310;52.198;5.422;2023-02-03T09:06:50;102242.31;;;8.43;100.00
64844;BME280;51310;52.198;5.422;2023-02-03T09:09:16;102250.09;;;8.37;100.00
64844;BME280;51310;52.198;5.422;2023-02-03T09:11:42;102261.41;;;8.45;100.00
64844;BME280;51310;52.198;5.422;2023-02-03T09:14:09;102251.13;;;8.45;100.00
64844;BME280;51310;52.198;5.422;2023-02-03T09:16:35;102252.06;;;8.45;100.00
64844;BME280;51310;52.198;5.422;2023-02-03T09:19:00;102244.94;;;8.50;100.00
64844;BME280;51310;52.198;5.422;2023-02-03T09:21:26;102247.88;;;8.53;100.00
64844;BME280;51310;52.198;5.422;2023-02-03T09:23:52;102242.25;;;8.55;100.00
64844;BME280;51310;52.198;5.422;2023-02-03T09:26:18;102229.56;;;8.57;100.00
64844;BME280;51310;52.198;5.422;2023-02-03T09:28:44;102258.91;;;8.59;100.00
64844;BME280;51310;52.198;5.422;2023-02-03T09:31:13;102260.94;;;8.61;100.00
64844;BME280;51310;52.198;5.422;2023-02-03T09:33:40;102264.25;;;8.60;100.00
64844;BME280;51310;52.198;5.422;2023-02-03T09:36:07;102244.44;;;8.59;100.00
64844;BME280;51310;52.198;5.422;2023-02-03T09:38:34;102255.31;;;8.64;100.00
64844;BME280;51310;52.198;5.422;2023-02-03T09:44:18;102273.94;;;8.56;100.00
64844;BME280;51310;52.198;5.422;2023-02-03T09:46:59;102259.47;;;8.56;100.00
64844;BME280;51310;52.198;5.422;2023-02-03T09:49:51;102266.63;;;8.59;100.00
64844;BME280;51310;52.198;5.422;2023-02-03T09:52:33;102262.59;;;8.61;100.00
64844;BME280;51310;52.198;5.422;2023-02-03T10:01:01;102275.47;;;8.68;100.00
64844;BME280;51310;52.198;5.422;2023-02-03T10:03:58;102292.63;;;8.75;100.00
64844;BME280;51310;52.198;5.422;2023-02-03T10:06:35;102279.94;;;8.76;100.00
64844;BME280;51310;52.198;5.422;2023-02-03T10:09:32;102270.81;;;8.78;100.00
64844;BME280;51310;52.198;5.422;2023-02-03T10:15:48;102282.38;;;8.82;100.00
64844;BME280;51310;52.198;5.422;2023-02-03T10:18:29;102293.22;;;8.87;100.00
64844;BME280;51310;52.198;5.422;2023-02-03T10:21:05;102282.97;;;8.87;100.00
64844;BME280;51310;52.198;5.422;2023-02-03T10:23:39;102288.09;;;8.87;100.00
64844;BME280;51310;52.198;5.422;2023-02-03T10:26:22;102301.69;;;8.86;100.00
64844;BME280;51310;52.198;5.422;2023-02-03T10:29:06;102307.94;;;8.88;100.00
64844;BME280;51310;52.198;5.422;2023-02-03T10:31:37;102307.41;;;8.90;100.00
64844;BME280;51310;52.198;5.422;2023-02-03T10:34:12;102300.59;;;8.91;100.00
64844;BME280;51310;52.198;5.422;2023-02-03T10:36:56;102296.59;;;8.93;100.00
64844;BME280;51310;52.198;5.422;2023-02-03T10:39:46;102311.78;;;8.91;100.00
64844;BME280;51310;52.198;5.422;2023-02-03T10:42:13;102331.28;;;8.96;100.00
64844;BME280;51310;52.198;5.422;2023-02-03T10:44:48;102322.63;;;8.96;100.00
64844;BME280;51310;52.198;5.422;2023-02-03T10:47:35;102315.88;;;8.96;100.00
64844;BME280;51310;52.198;5.422;2023-02-03T10:50:16;102320.47;;;8.99;100.00
64844;BME280;51310;52.198;5.422;2023-02-03T10:52:43;102329.66;;;9.04;100.00
64844;BME280;51310;52.198;5.422;2023-02-03T10:57:50;102327.09;;;9.04;100.00
64844;BME280;51310;52.198;5.422;2023-02-03T11:02:42;102333.47;;;9.00;100.00
64844;BME280;51310;52.198;5.422;2023-02-03T11:07:43;102328.56;;;9.02;100.00
64844;BME280;51310;52.198;5.422;2023-02-03T11:10:34;102333.47;;;9.00;100.00
64844;BME280;51310;52.198;5.422;2023-02-03T11:13:15;102337.38;;;9.04;100.00
64844;BME280;51310;52.198;5.422;2023-02-03T11:16:02;102349.50;;;9.05;100.00
64844;BME280;51310;52.198;5.422;2023-02-03T11:18:38;102346.41;;;9.08;100.00
64844;BME280;51310;52.198;5.422;2023-02-03T11:21:26;102346.19;;;9.06;100.00
64844;BME280;51310;52.198;5.422;2023-02-03T11:26:47;102343.28;;;9.10;100.00
64844;BME280;51310;52.198;5.422;2023-02-03T11:29:26;102333.59;;;9.15;100.00
64844;BME280;51310;52.198;5.422;2023-02-03T11:31:56;102342.63;;;9.18;100.00
64844;BME280;51310;52.198;5.422;2023-02-03T11:34:31;102345.19;;;9.18;100.00
64844;BME280;51310;52.198;5.422;2023-02-03T11:37:38;102359.16;;;9.20;100.00
64844;BME280;51310;52.198;5.422;2023-02-03T11:42:35;102354.88;;;9.14;100.00
64844;BME280;51310;52.198;5.422;2023-02-03T11:50:47;102314.84;;;9.09;100.00
64844;BME280;51310;52.198;5.422;2023-02-03T11:56:49;102323.59;;;8.76;100.00
64844;BME280;51310;52.198;5.422;2023-02-03T12:10:42;102340.84;;;8.25;100.00
64844;BME280;51310;52.198;5.422;2023-02-03T12:29:11;102388.44;;;8.02;100.00
64844;BME280;51310;52.198;5.422;2023-02-03T12:32:17;102384.22;;;8.03;100.00
64844;BME280;51310;52.198;5.422;2023-02-03T12:34:53;102384.31;;;8.10;100.00
64844;BME280;51310;52.198;5.422;2023-02-03T12:38:30;102366.75;;;8.13;100.00
64844;BME280;51310;52.198;5.422;2023-02-03T12:41:05;102396.91;;;8.21;100.00
64844;BME280;51310;52.198;5.422;2023-02-03T12:43:51;102399.16;;;8.26;100.00
64844;BME280;51310;52.198;5.422;2023-02-03T12:46:29;102392.97;;;8.31;100.00
64844;BME280;51310;52.198;5.422;2023-02-03T12:49:13;102393.88;;;8.31;100.00
64844;BME280;51310;52.198;5.422;2023-02-03T12:51:54;102405.16;;;8.39;100.00
64844;BME280;51310;52.198;5.422;2023-02-03T12:57:55;102425.59;;;8.45;100.00
64844;BME280;51310;52.198;5.422;2023-02-03T13:00:29;102422.31;;;8.46;100.00
64844;BME280;51310;52.198;5.422;2023-02-03T13:03:22;102410.38;;;8.46;100.00
64844;BME280;51310;52.198;5.422;2023-02-03T13:06:05;102424.88;;;8.46;100.00
64844;BME280;51310;52.198;5.422;2023-02-03T13:14:02;102425.06;;;8.47;100.00
64844;BME280;51310;52.198;5.422;2023-02-03T13:16:36;102433.47;;;8.46;100.00
64844;BME280;51310;52.198;5.422;2023-02-03T13:19:24;102417.91;;;8.45;100.00
64844;BME280;51310;52.198;5.422;2023-02-03T13:21:50;102410.53;;;8.40;100.00
64844;BME280;51310;52.198;5.422;2023-02-03T13:24:17;102415.22;;;8.37;100.00
64844;BME280;51310;52.198;5.422;2023-02-03T13:30:30;102435.56;;;8.36;100.00
64844;BME280;51310;52.198;5.422;2023-02-03T13:33:31;102440.84;;;8.37;100.00
64844;BME280;51310;52.198;5.422;2023-02-03T13:44:46;102443.56;;;8.32;100.00
64844;BME280;51310;52.198;5.422;2023-02-03T13:47:25;102425.59;;;8.32;100.00
64844;BME280;51310;52.198;5.422;2023-02-03T13:49:58;102438.44;;;8.32;100.00
64844;BME280;51310;52.198;5.422;2023-02-03T13:52:47;102430.13;;;8.27;100.00
64844;BME280;51310;52.198;5.422;2023-02-03T13:55:36;102433.03;;;8.23;100.00
64844;BME280;51310;52.198;5.422;2023-02-03T13:58:05;102428.59;;;8.22;100.00
64844;BME280;51310;52.198;5.422;2023-02-03T14:05:55;102425.31;;;8.23;100.00
64844;BME280;51310;52.198;5.422;2023-02-03T14:16:37;102457.34;;;8.19;100.00
64844;BME280;51310;52.198;5.422;2023-02-03T14:21:51;102460.50;;;8.24;100.00
64844;BME280;51310;52.198;5.422;2023-02-03T14:24:19;102480.63;;;8.21;100.00
64844;BME280;51310;52.198;5.422;2023-02-03T14:26:52;102474.75;;;8.22;100.00
64844;BME280;51310;52.198;5.422;2023-02-03T14:29:30;102486.97;;;8.17;100.00
64844;BME280;51310;52.198;5.422;2023-02-03T14:32:11;102485.16;;;8.16;100.00
64844;BME280;51310;52.198;5.422;2023-02-03T14:34:42;102478.16;;;8.15;100.00
64844;BME280;51310;52.198;5.422;2023-02-03T14:37:28;102479.81;;;8.15;100.00
64844;BME280;51310;52.198;5.422;2023-02-03T14:42:56;102477.25;;;8.15;100.00
64844;BME280;51310;52.198;5.422;2023-02-03T14:46:01;102487.81;;;8.11;100.00
64844;BME280;51310;52.198;5.422;2023-02-03T14:51:54;102490.38;;;8.11;100.00
64844;BME280;51310;52.198;5.422;2023-02-03T14:57:50;102492.84;;;8.04;100.00
64844;BME280;51310;52.198;5.422;2023-02-03T15:03:16;102490.59;;;7.99;100.00
64844;BME280;51310;52.198;5.422;2023-02-03T15:05:55;102490.38;;;7.98;100.00
64844;BME280;51310;52.198;5.422;2023-02-03T15:08:40;102491.59;;;7.94;100.00
64844;BME280;51310;52.198;5.422;2023-02-03T15:11:31;102484.66;;;7.93;100.00
64844;BME280;51310;52.198;5.422;2023-02-03T15:14:27;102480.66;;;7.95;100.00
64844;BME280;51310;52.198;5.422;2023-02-03T15:17:01;102485.16;;;7.91;100.00